Terminal Aerodrome Forecast
Issued by NWS

Home | Current Version | Previous Version | Text Only | Print | Product List | Glossary On
Versions: 1 2 3 4 5 6 7 8 9 10 11 12 13
271
FTUS41 KCAR 270540
TAFPQI
TAF
KPQI 270540Z 2706/2806 01008KT P6SM BKN090
     FM270800 01007KT P6SM SCT090
     FM272000 08004KT P6SM SCT050=

USA.gov is the U.S. government's official web portal to all federal, state and local government web resources and services.